createdAt,value
2022-08-22T00:02:24.592Z,2.92
2022-08-22T00:02:46.131Z,3.50
2022-08-22T00:03:00.778Z,2.87
2022-08-22T00:05:07.839Z,2.83
2022-08-22T00:07:52.783Z,4.32
2022-08-22T00:10:31.409Z,4.95
2022-08-22T00:13:05.950Z,2.87
2022-08-22T00:15:44.454Z,3.83
2022-08-22T00:18:41.479Z,3.17
2022-08-22T00:21:36.540Z,2.53
2022-08-22T00:24:17.450Z,2.25
2022-08-22T00:27:07.803Z,2.00
2022-08-22T00:29:39.839Z,2.95
2022-08-22T00:32:10.722Z,2.03
2022-08-22T00:34:43.328Z,1.90
2022-08-22T00:37:20.352Z,2.60
2022-08-22T00:40:26.651Z,1.83
2022-08-22T00:42:56.837Z,2.15
2022-08-22T00:46:24.313Z,1.80
2022-08-22T00:49:25.459Z,2.42
2022-08-22T00:52:14.868Z,2.65
2022-08-22T00:55:00.688Z,3.40
2022-08-22T00:57:30.641Z,2.42
2022-08-22T01:00:14.329Z,1.70
2022-08-22T01:02:56.602Z,2.15
2022-08-22T01:05:23.822Z,2.15
2022-08-22T01:08:18.535Z,1.70
2022-08-22T01:11:15.536Z,2.92
2022-08-22T01:14:04.254Z,3.97
2022-08-22T01:16:49.833Z,3.35
2022-08-22T01:19:29.208Z,2.55
2022-08-22T01:22:21.125Z,2.13
2022-08-22T01:25:25.932Z,2.08
2022-08-22T01:28:16.449Z,2.17
2022-08-22T01:31:08.846Z,1.77
2022-08-22T01:33:35.951Z,1.77
2022-08-22T01:36:29.515Z,3.67
2022-08-22T01:39:09.050Z,1.70
2022-08-22T01:42:00.592Z,1.90
2022-08-22T01:44:55.549Z,1.40
2022-08-22T01:47:56.175Z,1.77
2022-08-22T01:50:49.651Z,14.03
2022-08-22T01:53:25.820Z,1.20
2022-08-22T01:56:07.621Z,3.05
2022-08-22T01:58:42.661Z,1.50
2022-08-22T02:01:24.535Z,1.90
2022-08-22T02:04:18.583Z,1.90
2022-08-22T02:07:17.079Z,1.35
2022-08-22T02:10:05.060Z,1.83
2022-08-22T02:12:41.751Z,2.22
2022-08-22T02:15:21.233Z,1.73
2022-08-22T02:18:06.698Z,1.57
2022-08-22T02:20:55.635Z,3.03
2022-08-22T02:23:43.912Z,1.90
2022-08-22T02:26:41.393Z,1.63
2022-08-22T02:29:14.250Z,1.60
2022-08-22T02:32:04.961Z,2.17
2022-08-22T02:34:56.995Z,1.67
2022-08-22T02:37:39.475Z,2.25
2022-08-22T02:40:10.847Z,1.90
2022-08-22T02:42:59.830Z,1.77
2022-08-22T02:45:35.923Z,2.07
2022-08-22T02:48:34.256Z,1.92
2022-08-22T02:51:10.610Z,1.70
2022-08-22T02:54:00.223Z,1.83
2022-08-22T02:56:31.694Z,2.05
2022-08-22T02:59:13.189Z,3.57
2022-08-22T03:01:43.905Z,2.42
2022-08-22T03:04:25.931Z,2.03
2022-08-22T03:07:14.614Z,2.97
2022-08-22T03:09:49.614Z,2.47
2022-08-22T03:12:24.824Z,3.33
2022-08-22T03:15:00.534Z,2.67
2022-08-22T03:17:38.457Z,4.25
2022-08-22T03:20:35.303Z,3.42
2022-08-22T03:23:13.460Z,2.30
2022-08-22T03:25:52.874Z,2.63
2022-08-22T03:29:03.887Z,2.55
2022-08-22T03:31:32.308Z,3.03
2022-08-22T03:34:27.098Z,2.75
2022-08-22T03:37:20.911Z,2.85
2022-08-22T03:39:51.015Z,3.70
2022-08-22T03:42:30.124Z,3.20
2022-08-22T03:45:21.850Z,3.08
2022-08-22T03:48:22.226Z,2.95
2022-08-22T03:51:18.848Z,3.65
2022-08-22T03:53:45.929Z,4.13
2022-08-22T03:56:37.322Z,3.53
2022-08-22T03:59:37.128Z,2.90
2022-08-22T04:02:51.790Z,3.15
2022-08-22T04:05:43.705Z,2.90
2022-08-22T04:08:16.565Z,2.53
2022-08-22T04:11:12.120Z,2.85
2022-08-22T04:14:01.294Z,3.75
2022-08-22T04:16:50.990Z,2.90
2022-08-22T04:19:56.740Z,2.63
2022-08-22T04:22:33.396Z,2.47
2022-08-22T04:25:23.464Z,2.67
2022-08-22T04:28:13.231Z,2.58
2022-08-22T04:30:56.120Z,3.50
2022-08-22T04:33:30.421Z,3.53
2022-08-22T04:36:19.327Z,3.03
2022-08-22T04:38:52.973Z,3.83
2022-08-22T04:41:24.845Z,3.28
2022-08-22T04:43:58.781Z,2.70
2022-08-22T04:46:50.717Z,3.75
2022-08-22T04:49:29.494Z,4.03
2022-08-22T04:52:08.860Z,3.63
2022-08-22T04:54:58.028Z,3.65
2022-08-22T04:57:42.721Z,3.78
2022-08-22T05:00:11.816Z,3.50
2022-08-22T05:02:44.710Z,4.73
2022-08-22T05:05:23.677Z,3.50
2022-08-22T05:07:58.461Z,3.50
2022-08-22T05:10:33.474Z,3.17
2022-08-22T05:13:09.388Z,3.85
2022-08-22T05:15:40.762Z,4.63
2022-08-22T05:18:16.235Z,3.72
2022-08-22T05:20:49.360Z,4.97
2022-08-22T05:23:21.498Z,3.30
2022-08-22T05:25:51.671Z,3.70
2022-08-22T05:28:31.433Z,3.83
2022-08-22T05:30:59.727Z,2.55
2022-08-22T05:33:41.713Z,2.42
2022-08-22T05:36:25.570Z,2.92
2022-08-22T05:39:14.660Z,3.03
2022-08-22T05:41:42.133Z,2.90
2022-08-22T05:44:28.178Z,4.65
2022-08-22T05:47:08.075Z,3.20
2022-08-22T05:49:45.675Z,2.63
2022-08-22T05:52:33.549Z,3.10
2022-08-22T05:55:17.845Z,2.63
2022-08-22T05:57:50.023Z,3.22
2022-08-22T06:00:25.726Z,2.83
2022-08-22T06:02:55.598Z,2.60
2022-08-22T06:05:28.867Z,2.65
2022-08-22T06:08:20.157Z,2.43
2022-08-22T06:10:53.691Z,3.08
2022-08-22T06:13:24.714Z,2.70
2022-08-22T06:18:58.010Z,3.10
2022-08-22T06:21:29.153Z,2.77
2022-08-22T06:24:03.109Z,3.47
2022-08-22T06:26:39.433Z,2.53
2022-08-22T06:29:08.581Z,3.03
2022-08-22T06:31:46.734Z,4.07
2022-08-22T06:34:17.836Z,3.97
2022-08-22T06:36:49.424Z,3.47
2022-08-22T06:39:29.467Z,3.75
2022-08-22T06:42:15.893Z,3.08
2022-08-22T06:44:52.665Z,5.63
2022-08-22T06:47:28.019Z,2.60
2022-08-22T06:50:02.907Z,3.45
2022-08-22T06:52:34.469Z,3.78
2022-08-22T06:55:09.611Z,3.03
2022-08-22T06:57:45.218Z,3.20
2022-08-22T07:00:15.965Z,3.70
2022-08-22T07:02:52.877Z,3.22
2022-08-22T07:05:24.281Z,4.45
2022-08-22T07:07:52.759Z,4.05
2022-08-22T07:10:22.784Z,2.33
2022-08-22T07:12:54.036Z,3.43
2022-08-22T07:15:32.441Z,3.92
2022-08-22T07:18:02.803Z,3.72
2022-08-22T07:23:35.415Z,2.92
2022-08-22T07:26:10.956Z,2.47
2022-08-22T07:28:51.604Z,3.90
2022-08-22T07:31:46.621Z,4.22
2022-08-22T07:34:28.610Z,4.95
2022-08-22T07:37:03.974Z,4.07
2022-08-22T07:39:38.264Z,3.03
2022-08-22T07:42:11.440Z,3.33
2022-08-22T07:45:10.649Z,5.78
2022-08-22T07:47:54.511Z,3.60
2022-08-22T07:50:27.354Z,2.70
2022-08-22T07:53:01.702Z,4.10
2022-08-22T07:55:29.107Z,2.63
2022-08-22T07:58:01.833Z,3.80
2022-08-22T08:00:32.699Z,3.58
2022-08-22T08:03:06.927Z,3.53
2022-08-22T08:05:36.487Z,4.00
2022-08-22T08:08:12.256Z,3.42
2022-08-22T08:10:42.944Z,4.03
2022-08-22T08:13:20.799Z,4.03
2022-08-22T08:15:50.320Z,4.10
2022-08-22T08:18:22.018Z,4.43
2022-08-22T08:21:00.171Z,5.07
2022-08-22T08:23:31.437Z,3.70
2022-08-22T08:26:09.981Z,4.80
2022-08-22T08:28:45.772Z,4.88
2022-08-22T08:31:22.039Z,4.13
2022-08-22T08:33:53.420Z,3.95
2022-08-22T08:36:37.932Z,2.90
2022-08-22T08:39:14.335Z,2.92
2022-08-22T08:41:53.876Z,2.72
2022-08-22T08:44:39.512Z,3.40
2022-08-22T08:47:34.541Z,3.00
2022-08-22T08:50:11.845Z,3.63
2022-08-22T08:56:10.786Z,4.82
2022-08-22T08:59:03.335Z,4.00
2022-08-22T09:01:54.131Z,4.03
2022-08-22T09:04:56.113Z,4.35
2022-08-22T09:07:35.370Z,4.25
2022-08-22T09:11:12.087Z,3.55
2022-08-22T09:14:11.438Z,3.30
2022-08-22T09:20:22.631Z,4.03
2022-08-22T09:23:37.683Z,4.05
2022-08-22T09:26:17.185Z,4.07
2022-08-22T09:29:35.891Z,3.40
2022-08-22T09:32:30.023Z,3.40
2022-08-22T09:35:12.685Z,3.70
2022-08-22T09:38:18.234Z,4.38
2022-08-22T09:40:51.603Z,3.85
2022-08-22T09:43:24.542Z,4.93
2022-08-22T09:46:02.126Z,3.30
2022-08-22T09:48:45.562Z,3.92
2022-08-22T09:51:38.770Z,4.40
2022-08-22T09:57:33.653Z,4.97
2022-08-22T10:00:22.153Z,5.00
2022-08-22T10:02:52.603Z,3.40
2022-08-22T10:06:13.279Z,3.58
2022-08-22T10:11:46.228Z,4.17
2022-08-22T10:14:50.651Z,3.85
2022-08-22T10:17:30.589Z,3.55
2022-08-22T10:20:10.176Z,3.60
2022-08-22T10:23:02.970Z,4.97
2022-08-22T10:25:42.179Z,3.40
2022-08-22T10:28:15.231Z,4.40
2022-08-22T10:31:20.127Z,4.53
2022-08-22T10:33:47.263Z,3.95
2022-08-22T10:36:19.954Z,4.47
2022-08-22T10:38:53.278Z,3.40
2022-08-22T10:41:36.770Z,4.22
2022-08-22T10:44:17.302Z,5.78
2022-08-22T10:46:47.839Z,3.75
2022-08-22T10:49:29.419Z,4.38
2022-08-22T10:52:16.038Z,3.20
2022-08-22T10:55:17.485Z,3.20
2022-08-22T10:58:13.738Z,3.83
2022-08-22T11:00:58.515Z,3.30
2022-08-22T11:03:28.655Z,4.45
2022-08-22T11:06:01.610Z,3.40
2022-08-22T11:08:52.468Z,3.30
2022-08-22T11:11:23.711Z,4.15
2022-08-22T11:14:09.744Z,3.80
2022-08-22T11:16:55.573Z,4.18
2022-08-22T11:19:31.854Z,4.37
2022-08-22T11:22:33.838Z,4.22
2022-08-22T11:25:38.930Z,3.65
2022-08-22T11:28:25.415Z,3.72
2022-08-22T11:31:09.478Z,4.43
2022-08-22T11:36:56.556Z,3.70
2022-08-22T11:39:33.483Z,4.25
2022-08-22T11:42:14.502Z,4.22
2022-08-22T11:44:54.349Z,4.30
2022-08-22T11:47:26.537Z,3.80
2022-08-22T11:50:34.631Z,4.40
2022-08-22T11:53:11.440Z,4.47
2022-08-22T11:55:42.476Z,5.13
2022-08-22T12:01:34.478Z,4.30
2022-08-22T12:04:12.946Z,4.25
2022-08-22T12:07:15.525Z,4.00
2022-08-22T12:09:56.052Z,5.07
2022-08-22T12:12:32.406Z,4.13
2022-08-22T12:15:15.910Z,4.10
2022-08-22T12:18:14.362Z,3.70
2022-08-22T12:21:18.799Z,4.45
2022-08-22T12:24:11.113Z,5.53
2022-08-22T12:27:28.926Z,4.90
2022-08-22T12:30:14.170Z,4.43
2022-08-22T12:33:09.673Z,4.78
2022-08-22T12:36:18.543Z,5.57
2022-08-22T12:39:01.829Z,4.30
2022-08-22T12:41:37.936Z,4.63
2022-08-22T12:44:24.427Z,5.53
2022-08-22T12:46:55.163Z,5.28
2022-08-22T12:50:00.525Z,4.65
2022-08-22T12:52:40.389Z,4.60
2022-08-22T12:55:28.289Z,3.90
2022-08-22T12:58:18.168Z,4.03
2022-08-22T13:00:48.089Z,4.00
2022-08-22T13:03:37.583Z,4.70
2022-08-22T13:06:21.953Z,4.75
2022-08-22T13:08:50.196Z,4.60
2022-08-22T13:11:23.194Z,4.77
2022-08-22T13:13:58.742Z,9.70
2022-08-22T13:16:37.516Z,4.47
2022-08-22T13:19:16.896Z,4.43
2022-08-22T13:21:48.318Z,4.63
2022-08-22T13:24:38.491Z,4.73
2022-08-22T13:27:14.932Z,5.47
2022-08-22T13:29:57.152Z,4.85
2022-08-22T13:32:37.735Z,3.60
2022-08-22T13:35:09.759Z,4.60
2022-08-22T13:37:45.425Z,4.13
2022-08-22T13:40:29.562Z,4.13
2022-08-22T13:43:11.267Z,4.57
2022-08-22T13:45:42.007Z,5.65
2022-08-22T13:48:13.133Z,5.05
2022-08-22T13:51:04.036Z,4.87
2022-08-22T13:54:01.925Z,5.20
2022-08-22T13:56:52.293Z,6.00
2022-08-22T13:59:50.891Z,5.30
2022-08-22T14:02:34.869Z,5.68
2022-08-22T14:05:22.142Z,5.03
2022-08-22T14:08:03.097Z,6.65
2022-08-22T14:10:35.476Z,5.22
2022-08-22T14:13:48.094Z,5.82
2022-08-22T14:16:24.254Z,7.18
2022-08-22T14:18:58.066Z,5.40
2022-08-22T14:21:40.182Z,5.90
2022-08-22T14:24:25.850Z,6.28
2022-08-22T14:27:06.363Z,6.15
2022-08-22T14:32:54.388Z,5.23
2022-08-22T14:35:37.910Z,5.50
2022-08-22T14:38:17.454Z,5.00
2022-08-22T14:40:47.150Z,4.72
2022-08-22T14:43:35.888Z,5.32
2022-08-22T14:46:12.605Z,4.90
2022-08-22T14:49:18.377Z,4.88
2022-08-22T14:51:59.339Z,5.03
2022-08-22T14:54:29.107Z,5.47
2022-08-22T14:56:57.970Z,5.88
2022-08-22T14:59:30.884Z,7.47
2022-08-22T15:02:13.764Z,5.03
2022-08-22T15:04:49.774Z,5.30
2022-08-22T15:07:34.879Z,4.22
2022-08-22T15:10:26.994Z,6.70
2022-08-22T15:13:03.179Z,4.93
2022-08-22T15:15:49.772Z,4.63
2022-08-22T15:18:27.268Z,4.72
2022-08-22T15:21:10.204Z,3.80
2022-08-22T15:23:44.795Z,4.10
2022-08-22T15:26:22.482Z,3.50
2022-08-22T15:28:57.749Z,4.10
2022-08-22T15:31:25.652Z,3.50
2022-08-22T15:34:06.997Z,4.82
2022-08-22T15:36:56.303Z,3.58
2022-08-22T15:39:34.008Z,5.97
2022-08-22T15:42:05.576Z,4.10
2022-08-22T15:44:40.528Z,4.55
2022-08-22T15:47:31.504Z,4.50
2022-08-22T15:50:09.888Z,3.92
2022-08-22T15:53:13.527Z,3.70
2022-08-22T15:56:03.079Z,3.58
2022-08-22T15:58:37.293Z,3.63
2022-08-22T16:01:18.814Z,4.68
2022-08-22T16:04:14.389Z,4.68
2022-08-22T16:06:49.117Z,3.87
2022-08-22T16:09:49.255Z,5.03
2022-08-22T16:12:31.736Z,4.20
2022-08-22T16:15:01.421Z,4.93
2022-08-22T16:17:28.464Z,4.57
2022-08-22T16:20:19.522Z,5.63
2022-08-22T16:23:07.484Z,5.13
2022-08-22T16:25:47.531Z,4.90
2022-08-22T16:28:41.493Z,5.68
2022-08-22T16:31:27.433Z,4.55
2022-08-22T16:33:59.166Z,4.93
2022-08-22T16:37:03.498Z,5.10
2022-08-22T16:39:43.312Z,5.45
2022-08-22T16:42:13.659Z,5.10
2022-08-22T16:44:55.359Z,5.97
2022-08-22T16:47:36.238Z,4.70
2022-08-22T16:50:30.075Z,4.68
2022-08-22T16:53:06.036Z,4.68
2022-08-22T16:55:35.946Z,5.05
2022-08-22T16:58:44.753Z,4.30
2022-08-22T17:01:42.844Z,4.67
2022-08-22T17:04:12.963Z,4.63
2022-08-22T17:07:04.597Z,4.55
2022-08-22T17:09:50.519Z,4.18
2022-08-22T17:12:23.537Z,4.80
2022-08-22T17:15:02.622Z,4.93
2022-08-22T17:17:59.554Z,4.88
2022-08-22T17:20:44.602Z,4.32
2022-08-22T17:23:39.300Z,3.63
2022-08-22T17:26:19.224Z,3.58
2022-08-22T17:28:56.550Z,4.07
2022-08-22T17:31:55.713Z,3.42
2022-08-22T17:34:41.407Z,4.68
2022-08-22T17:37:36.418Z,4.15
2022-08-22T17:40:17.085Z,3.33
2022-08-22T17:42:59.680Z,4.47
2022-08-22T17:45:38.221Z,4.00
2022-08-22T17:48:26.588Z,4.32
2022-08-22T17:51:28.599Z,3.88
2022-08-22T17:54:17.373Z,3.80
2022-08-22T17:57:05.124Z,5.10
2022-08-22T17:59:47.554Z,4.80
2022-08-22T18:02:27.414Z,4.45
2022-08-22T18:05:35.242Z,3.83
2022-08-22T18:08:38.698Z,4.05
2022-08-22T18:11:40.767Z,4.23
2022-08-22T18:14:30.463Z,4.30
2022-08-22T18:17:00.747Z,4.30
2022-08-22T18:19:36.593Z,3.88
2022-08-22T18:22:09.560Z,3.85
2022-08-22T18:24:49.904Z,3.30
2022-08-22T18:27:34.045Z,3.50
2022-08-22T18:30:08.540Z,3.78
2022-08-22T18:32:54.114Z,4.55
2022-08-22T18:35:28.955Z,3.67
2022-08-22T18:38:19.538Z,3.97
2022-08-22T18:40:54.658Z,3.47
2022-08-22T18:43:36.865Z,4.78
2022-08-22T18:46:27.088Z,4.35
2022-08-22T18:49:14.485Z,3.92
2022-08-22T18:51:42.437Z,3.87
2022-08-22T18:54:11.184Z,3.40
2022-08-22T18:56:49.708Z,5.72
2022-08-22T18:59:29.001Z,3.45
2022-08-22T19:02:02.579Z,4.38
2022-08-22T19:05:12.035Z,3.77
2022-08-22T19:08:39.253Z,3.90
2022-08-22T19:11:35.104Z,5.13
2022-08-22T19:14:19.630Z,6.50
2022-08-22T19:17:15.049Z,4.28
2022-08-22T19:20:16.395Z,3.27
2022-08-22T19:22:44.084Z,2.88
2022-08-22T19:25:19.706Z,3.63
2022-08-22T19:28:07.750Z,3.42
2022-08-22T19:30:42.975Z,3.50
2022-08-22T19:33:19.956Z,3.60
2022-08-22T19:35:55.536Z,3.00
2022-08-22T19:38:53.716Z,3.67
2022-08-22T19:41:44.332Z,3.72
2022-08-22T19:44:17.791Z,4.45
2022-08-22T19:47:02.452Z,3.77
2022-08-22T19:49:35.150Z,3.45
2022-08-22T19:52:34.004Z,4.00
2022-08-22T19:58:32.006Z,5.35
2022-08-22T20:01:18.922Z,3.97
2022-08-22T20:03:53.238Z,6.60
2022-08-22T20:06:40.727Z,5.32
2022-08-22T20:09:29.110Z,4.00
2022-08-22T20:12:28.601Z,3.13
2022-08-22T20:14:56.280Z,3.30
2022-08-22T20:17:26.218Z,3.30
2022-08-22T20:20:17.570Z,4.78
2022-08-22T20:23:21.123Z,5.95
2022-08-22T20:25:52.885Z,3.60
2022-08-22T20:28:38.531Z,4.23
2022-08-22T20:31:27.093Z,4.72
2022-08-22T20:34:01.297Z,4.40
2022-08-22T20:37:15.786Z,5.72
2022-08-22T20:39:58.575Z,8.77
2022-08-22T20:42:28.271Z,8.17
2022-08-22T20:44:56.172Z,8.57
2022-08-22T20:47:26.069Z,8.25
2022-08-22T20:50:07.811Z,10.88
2022-08-22T20:52:38.303Z,8.88
2022-08-22T20:55:07.606Z,10.47
2022-08-22T20:57:43.821Z,10.45
2022-08-22T21:00:14.373Z,9.55
2022-08-22T21:02:48.091Z,11.05
2022-08-22T21:05:17.315Z,9.77
2022-08-22T21:07:47.086Z,11.67
2022-08-22T21:10:41.034Z,9.30
2022-08-22T21:13:29.900Z,9.80
2022-08-22T21:16:10.966Z,6.88
2022-08-22T21:18:45.867Z,6.38
2022-08-22T21:21:18.129Z,7.07
2022-08-22T21:23:48.951Z,7.57
2022-08-22T21:26:20.893Z,6.50
2022-08-22T21:28:56.042Z,6.88
2022-08-22T21:31:26.985Z,6.03
2022-08-22T21:33:55.808Z,5.63
2022-08-22T21:36:27.359Z,5.35
2022-08-22T21:39:03.580Z,5.80
2022-08-22T21:41:41.750Z,7.75
2022-08-22T21:44:27.284Z,9.68
2022-08-22T21:46:55.666Z,7.20
2022-08-22T21:49:26.669Z,6.85
2022-08-22T21:51:53.910Z,5.75
2022-08-22T21:54:35.653Z,6.30
2022-08-22T21:57:08.988Z,6.85
2022-08-22T21:59:59.800Z,9.63
2022-08-22T22:02:37.894Z,6.47
2022-08-22T22:05:11.504Z,6.47
2022-08-22T22:07:41.283Z,6.15
2022-08-22T22:10:10.985Z,5.90
2022-08-22T22:12:40.780Z,5.67
2022-08-22T22:15:13.812Z,5.32
2022-08-22T22:17:40.979Z,6.00
2022-08-22T22:20:08.987Z,5.75
2022-08-22T22:22:37.051Z,7.28
2022-08-22T22:25:39.597Z,5.67
2022-08-22T22:28:05.372Z,6.88
2022-08-22T22:30:32.674Z,6.72
2022-08-22T22:32:59.792Z,9.13
2022-08-22T22:35:27.094Z,4.68
2022-08-22T22:37:55.924Z,7.37
2022-08-22T22:40:24.176Z,5.43
2022-08-22T22:42:51.393Z,5.93
2022-08-22T22:45:18.765Z,5.72
2022-08-22T22:47:45.899Z,5.65
2022-08-22T22:50:13.088Z,4.63
2022-08-22T22:52:40.934Z,5.15
2022-08-22T22:55:09.443Z,5.00
2022-08-22T22:57:39.749Z,7.13
2022-08-22T23:00:12.499Z,5.28
2022-08-22T23:02:40.059Z,4.47
2022-08-22T23:05:08.737Z,4.78
2022-08-22T23:07:38.321Z,6.00
2022-08-22T23:10:07.349Z,4.97
2022-08-22T23:12:36.426Z,6.95
2022-08-22T23:15:06.345Z,6.80
2022-08-22T23:17:34.706Z,5.30
2022-08-22T23:20:02.292Z,5.57
2022-08-22T23:22:30.218Z,5.72
2022-08-22T23:24:57.350Z,4.55
2022-08-22T23:27:24.480Z,4.83
2022-08-22T23:29:52.887Z,4.68
2022-08-22T23:32:20.562Z,3.72
2022-08-22T23:34:48.809Z,4.78
2022-08-22T23:37:19.900Z,4.43
2022-08-22T23:39:48.150Z,6.30
2022-08-22T23:42:15.475Z,6.45
2022-08-22T23:44:45.222Z,5.57
2022-08-22T23:47:14.003Z,4.55
2022-08-22T23:49:42.965Z,5.80
2022-08-22T23:52:11.925Z,4.50
2022-08-22T23:54:39.198Z,4.38
2022-08-22T23:57:11.658Z,4.93
2022-08-22T23:59:46.336Z,5.07
